createdAt,value
2018-03-08T00:02:19.098Z,65.62
2018-03-08T00:04:51.615Z,65.70
2018-03-08T00:07:24.146Z,65.87
2018-03-08T00:09:56.652Z,65.73
2018-03-08T00:12:29.165Z,66.02
2018-03-08T00:15:01.669Z,65.91
2018-03-08T00:17:34.189Z,65.71
2018-03-08T00:20:06.695Z,66.06
2018-03-08T00:22:39.218Z,65.96
2018-03-08T00:25:11.724Z,66.00
2018-03-08T00:27:44.251Z,65.83
2018-03-08T00:30:16.755Z,65.87
2018-03-08T00:32:49.290Z,65.89
2018-03-08T00:35:21.858Z,65.95
2018-03-08T00:37:54.384Z,65.86
2018-03-08T00:40:26.885Z,65.66
2018-03-08T00:42:59.488Z,65.78
2018-03-08T00:45:32.074Z,65.74
2018-03-08T00:48:04.610Z,65.71
2018-03-08T00:50:37.107Z,65.83
2018-03-08T00:53:09.636Z,65.83
2018-03-08T00:55:42.150Z,66.03
2018-03-08T00:58:14.676Z,66.24
2018-03-08T01:00:47.198Z,66.15
2018-03-08T01:03:19.758Z,66.28
2018-03-08T01:05:52.285Z,66.37
2018-03-08T01:08:24.820Z,66.30
2018-03-08T01:10:57.321Z,66.23
2018-03-08T01:13:29.840Z,66.11
2018-03-08T01:16:02.348Z,66.11
2018-03-08T01:18:34.870Z,65.95
2018-03-08T01:21:07.390Z,66.09
2018-03-08T01:23:39.917Z,65.94
2018-03-08T01:26:12.428Z,65.79
2018-03-08T01:28:44.965Z,66.01
2018-03-08T01:31:17.520Z,65.96
2018-03-08T01:33:50.017Z,65.80
2018-03-08T01:36:28.015Z,65.93
2018-03-08T01:39:00.532Z,65.89
2018-03-08T01:41:33.050Z,65.88
2018-03-08T01:44:05.552Z,65.93
2018-03-08T01:46:38.070Z,66.02
2018-03-08T01:49:10.565Z,65.77
2018-03-08T01:51:54.698Z,66.04
2018-03-08T01:54:27.208Z,66.22
2018-03-08T01:56:59.736Z,65.96
2018-03-08T01:59:32.244Z,66.75
2018-03-08T02:02:04.783Z,66.87
2018-03-08T02:04:37.311Z,66.54
2018-03-08T02:07:09.826Z,66.57
2018-03-08T02:09:42.332Z,66.32
2018-03-08T02:12:14.881Z,66.18
2018-03-08T02:14:47.387Z,66.14
2018-03-08T02:17:19.909Z,66.22
2018-03-08T02:19:52.432Z,66.20
2018-03-08T02:22:25.434Z,66.27
2018-03-08T02:24:57.936Z,66.30
2018-03-08T02:27:30.458Z,64.58
2018-03-08T02:30:03.027Z,66.57
2018-03-08T02:32:35.553Z,66.78
2018-03-08T02:35:08.104Z,66.85
2018-03-08T02:37:40.678Z,66.56
2018-03-08T02:40:13.209Z,66.69
2018-03-08T02:42:45.786Z,66.96
2018-03-08T02:45:18.309Z,66.69
2018-03-08T02:47:50.879Z,66.67
2018-03-08T02:50:23.412Z,66.62
2018-03-08T02:52:55.948Z,66.61
2018-03-08T02:55:28.478Z,66.68
2018-03-08T02:58:01.008Z,66.96
2018-03-08T03:00:33.530Z,66.92
2018-03-08T03:03:06.057Z,66.77
2018-03-08T03:05:38.578Z,66.93
2018-03-08T03:08:11.109Z,66.98
2018-03-08T03:10:43.613Z,67.14
2018-03-08T03:13:16.147Z,67.18
2018-03-08T03:15:48.668Z,67.52
2018-03-08T03:18:21.189Z,67.63
2018-03-08T03:20:53.713Z,67.12
2018-03-08T03:23:26.241Z,67.62
2018-03-08T03:25:58.754Z,67.81
2018-03-08T03:28:31.272Z,67.57
2018-03-08T03:31:03.782Z,67.32
2018-03-08T03:33:36.431Z,67.45
2018-03-08T03:36:08.960Z,67.49
2018-03-08T03:38:41.489Z,67.45
2018-03-08T03:41:13.999Z,67.36
2018-03-08T03:43:46.545Z,67.28
2018-03-08T03:46:19.076Z,67.24
2018-03-08T03:48:51.606Z,67.23
2018-03-08T03:51:24.150Z,67.12
2018-03-08T03:53:56.674Z,67.24
2018-03-08T03:56:29.182Z,67.27
2018-03-08T03:59:01.726Z,67.22
2018-03-08T04:01:34.226Z,67.36
2018-03-08T04:04:06.762Z,67.38
2018-03-08T04:06:39.266Z,67.38
2018-03-08T04:09:11.807Z,68.01
2018-03-08T04:11:44.322Z,67.64
2018-03-08T04:14:16.882Z,67.36
2018-03-08T04:16:49.395Z,67.73
2018-03-08T04:19:21.924Z,67.88
2018-03-08T04:21:54.837Z,67.97
2018-03-08T04:24:27.389Z,67.84
2018-03-08T04:26:59.902Z,68.09
2018-03-08T04:29:32.423Z,68.03
2018-03-08T04:32:04.927Z,68.24
2018-03-08T04:34:37.451Z,68.12
2018-03-08T04:37:09.958Z,68.08
2018-03-08T04:39:42.491Z,68.30
2018-03-08T04:42:15.016Z,68.21
2018-03-08T04:44:47.545Z,68.24
2018-03-08T04:47:20.082Z,68.23
2018-03-08T04:49:52.630Z,68.43
2018-03-08T04:52:25.568Z,68.26
2018-03-08T04:54:58.125Z,68.39
2018-03-08T04:57:30.678Z,68.58
2018-03-08T05:00:03.178Z,68.50
2018-03-08T05:02:35.730Z,68.51
2018-03-08T05:05:08.274Z,68.50
2018-03-08T05:07:40.818Z,68.10
2018-03-08T05:10:13.337Z,68.49
2018-03-08T05:12:45.876Z,68.71
2018-03-08T05:15:18.388Z,68.73
2018-03-08T05:17:50.940Z,68.64
2018-03-08T05:20:23.468Z,68.68
2018-03-08T05:22:56.081Z,68.89
2018-03-08T05:25:28.610Z,68.92
2018-03-08T05:28:01.194Z,69.15
2018-03-08T05:30:33.721Z,68.90
2018-03-08T05:33:06.255Z,69.19
2018-03-08T05:35:38.785Z,69.32
2018-03-08T05:38:11.338Z,69.26
2018-03-08T05:40:43.876Z,70.62
2018-03-08T05:43:16.446Z,69.99
2018-03-08T05:45:48.977Z,69.58
2018-03-08T05:48:21.494Z,70.53
2018-03-08T05:50:54.104Z,70.22
2018-03-08T05:53:26.645Z,69.95
2018-03-08T05:55:59.168Z,70.39
2018-03-08T05:58:31.694Z,70.84
2018-03-08T06:01:04.241Z,70.46
2018-03-08T06:03:36.789Z,70.16
2018-03-08T06:06:09.346Z,70.47
2018-03-08T06:08:41.889Z,70.12
2018-03-08T06:11:14.451Z,70.12
2018-03-08T06:13:47.083Z,69.89
2018-03-08T06:16:19.607Z,69.66
2018-03-08T06:18:52.212Z,69.99
2018-03-08T06:21:24.743Z,69.77
2018-03-08T06:23:57.292Z,70.23
2018-03-08T06:26:29.810Z,70.15
2018-03-08T06:29:02.434Z,70.21
2018-03-08T06:31:34.939Z,70.05
2018-03-08T06:34:07.508Z,69.11
2018-03-08T06:36:40.062Z,70.14
2018-03-08T06:39:12.608Z,69.97
2018-03-08T06:41:45.118Z,69.48
2018-03-08T06:44:17.674Z,71.60
2018-03-08T06:46:50.184Z,70.70
2018-03-08T06:49:22.722Z,70.32
2018-03-08T06:51:55.225Z,70.21
2018-03-08T06:54:27.782Z,70.23
2018-03-08T06:57:00.297Z,70.29
2018-03-08T06:59:32.838Z,70.27
2018-03-08T07:02:05.356Z,70.69
2018-03-08T07:04:38.030Z,70.81
2018-03-08T07:07:10.572Z,70.47
2018-03-08T07:09:43.111Z,70.21
2018-03-08T07:12:15.683Z,70.15
2018-03-08T07:14:48.285Z,69.95
2018-03-08T07:17:20.818Z,70.33
2018-03-08T07:19:53.369Z,69.95
2018-03-08T07:22:25.901Z,68.38
2018-03-08T07:24:58.425Z,70.35
2018-03-08T07:27:30.958Z,70.61
2018-03-08T07:30:03.500Z,70.52
2018-03-08T07:32:36.006Z,70.33
2018-03-08T07:35:08.555Z,69.10
2018-03-08T07:37:41.072Z,69.49
2018-03-08T07:40:13.618Z,70.20
2018-03-08T07:42:46.202Z,69.99
2018-03-08T07:45:18.815Z,69.88
2018-03-08T07:47:51.317Z,70.37
2018-03-08T07:50:23.916Z,70.24
2018-03-08T07:52:56.414Z,69.35
2018-03-08T07:55:28.958Z,70.13
2018-03-08T07:58:01.557Z,70.13
2018-03-08T08:00:34.102Z,69.81
2018-03-08T08:03:06.749Z,69.84
2018-03-08T08:08:55.873Z,69.92
2018-03-08T08:11:28.388Z,69.94
2018-03-08T08:14:00.922Z,68.53
2018-03-08T08:16:33.456Z,69.93
2018-03-08T08:19:05.978Z,70.11
2018-03-08T08:21:38.505Z,70.02
2018-03-08T08:24:11.041Z,69.94
2018-03-08T08:26:43.549Z,70.05
2018-03-08T08:29:16.101Z,70.03
2018-03-08T08:31:48.610Z,70.34
2018-03-08T08:34:21.134Z,69.24
2018-03-08T08:36:53.634Z,69.89
2018-03-08T08:39:26.169Z,69.81
2018-03-08T08:41:58.669Z,69.94
2018-03-08T08:44:31.203Z,69.83
2018-03-08T08:47:03.699Z,69.65
2018-03-08T08:49:36.233Z,70.05
2018-03-08T08:52:08.745Z,70.20
2018-03-08T08:54:41.270Z,70.42
2018-03-08T08:57:13.789Z,70.37
2018-03-08T08:59:46.326Z,71.01
2018-03-08T09:02:18.848Z,70.36
2018-03-08T09:04:51.476Z,70.37
2018-03-08T09:07:23.988Z,70.49
2018-03-08T09:09:56.534Z,70.02
2018-03-08T09:12:29.048Z,68.67
2018-03-08T09:15:01.581Z,70.64
2018-03-08T09:17:34.099Z,70.66
2018-03-08T09:20:06.626Z,70.59
2018-03-08T09:22:39.132Z,70.51
2018-03-08T09:25:11.675Z,70.60
2018-03-08T09:27:44.237Z,70.71
2018-03-08T09:30:16.754Z,70.01
2018-03-08T09:32:49.257Z,70.12
2018-03-08T09:35:21.798Z,70.68
2018-03-08T09:37:54.312Z,69.35
2018-03-08T09:40:26.854Z,69.05
2018-03-08T09:42:59.385Z,70.75
2018-03-08T09:45:31.957Z,70.94
2018-03-08T09:48:04.478Z,70.19
2018-03-08T09:50:37.006Z,70.55
2018-03-08T09:53:09.515Z,71.43
2018-03-08T09:55:42.046Z,66.56
2018-03-08T09:58:14.565Z,67.13
2018-03-08T10:00:47.098Z,70.74
2018-03-08T10:03:19.602Z,70.75
2018-03-08T10:05:52.170Z,66.11
2018-03-08T10:08:24.686Z,68.64
2018-03-08T10:10:57.206Z,68.08
2018-03-08T10:13:29.716Z,69.94
2018-03-08T10:16:02.236Z,67.67
2018-03-08T10:18:34.752Z,68.31
2018-03-08T10:21:07.330Z,69.21
2018-03-08T10:23:39.863Z,64.55
2018-03-08T10:26:12.450Z,69.34
2018-03-08T10:28:44.917Z,64.62
2018-03-08T10:31:17.464Z,70.42
2018-03-08T10:33:49.986Z,69.27
2018-03-08T10:36:22.530Z,70.27
2018-03-08T10:38:55.044Z,63.77
2018-03-08T10:44:00.147Z,69.71
2018-03-08T10:46:32.669Z,69.05
2018-03-08T10:49:05.219Z,68.93
2018-03-08T10:51:37.770Z,66.90
2018-03-08T10:54:10.281Z,64.61
2018-03-08T10:56:42.801Z,69.39
2018-03-08T10:59:15.318Z,68.61
2018-03-08T11:01:50.745Z,65.26
2018-03-08T11:04:29.145Z,67.55
2018-03-08T11:07:01.677Z,67.41
2018-03-08T11:09:34.181Z,67.95
2018-03-08T11:12:06.722Z,66.60
2018-03-08T11:14:39.243Z,65.92
2018-03-08T11:17:11.827Z,65.02
2018-03-08T11:19:44.336Z,61.19
2018-03-08T11:22:16.871Z,66.76
2018-03-08T11:24:49.385Z,60.18
2018-03-08T11:27:21.909Z,66.27
2018-03-08T11:29:54.417Z,65.28
2018-03-08T11:32:26.938Z,60.88
2018-03-08T11:34:59.441Z,65.05
2018-03-08T11:37:31.974Z,65.43
2018-03-08T11:40:04.484Z,61.77
2018-03-08T11:42:37.009Z,63.08
2018-03-08T11:45:09.513Z,62.93
2018-03-08T11:47:42.034Z,65.27
2018-03-08T11:50:14.534Z,60.91
2018-03-08T11:52:47.084Z,63.54
2018-03-08T11:55:19.588Z,64.69
2018-03-08T11:57:52.144Z,62.46
2018-03-08T12:00:24.654Z,61.35
2018-03-08T12:02:57.194Z,63.20
2018-03-08T12:05:29.706Z,62.66
2018-03-08T12:08:02.244Z,60.36
2018-03-08T12:10:34.757Z,62.78
2018-03-08T12:13:07.302Z,61.54
2018-03-08T12:15:39.821Z,62.01
2018-03-08T12:18:12.381Z,57.76
2018-03-08T12:20:44.878Z,60.01
2018-03-08T12:23:17.420Z,54.97
2018-03-08T12:25:49.929Z,59.97
2018-03-08T12:28:22.460Z,58.79
2018-03-08T12:30:55.075Z,59.92
2018-03-08T12:33:27.526Z,58.74
2018-03-08T12:38:37.761Z,58.74
2018-03-08T12:41:10.275Z,59.09
2018-03-08T12:43:42.813Z,58.22
2018-03-08T12:46:15.318Z,56.59
2018-03-08T12:48:47.918Z,57.75
2018-03-08T12:51:20.387Z,58.47
2018-03-08T12:53:52.914Z,57.93
2018-03-08T12:56:25.482Z,57.49
2018-03-08T12:58:58.004Z,56.15
2018-03-08T13:01:30.508Z,56.33
2018-03-08T13:04:03.030Z,57.15
2018-03-08T13:06:35.547Z,57.17
2018-03-08T13:09:08.430Z,55.92
2018-03-08T13:11:41.094Z,53.11
2018-03-08T13:14:13.566Z,53.86
2018-03-08T13:16:46.087Z,51.00
2018-03-08T13:19:18.590Z,54.95
2018-03-08T13:21:51.117Z,54.38
2018-03-08T13:24:23.647Z,53.71
2018-03-08T13:26:56.176Z,47.92
2018-03-08T13:29:28.675Z,48.31
2018-03-08T13:32:01.197Z,54.40
2018-03-08T13:34:37.551Z,53.14
2018-03-08T13:37:10.573Z,54.12
2018-03-08T13:39:43.103Z,53.58
2018-03-08T13:42:15.663Z,51.68
2018-03-08T13:44:48.162Z,52.99
2018-03-08T13:47:20.689Z,52.10
2018-03-08T13:49:53.209Z,52.58
2018-03-08T13:52:25.776Z,52.33
2018-03-08T13:54:58.308Z,51.08
2018-03-08T13:57:30.833Z,49.17
2018-03-08T14:00:03.348Z,50.45
2018-03-08T14:02:35.862Z,52.41
2018-03-08T14:05:08.369Z,52.72
2018-03-08T14:07:40.887Z,50.92
2018-03-08T14:10:13.390Z,53.24
2018-03-08T14:12:46.185Z,52.37
2018-03-08T14:15:18.681Z,53.14
2018-03-08T14:17:51.202Z,52.55
2018-03-08T14:20:23.707Z,51.19
2018-03-08T14:22:56.237Z,50.79
2018-03-08T14:25:28.740Z,50.62
2018-03-08T14:28:01.263Z,49.37
2018-03-08T14:30:33.778Z,50.11
2018-03-08T14:33:06.324Z,46.47
2018-03-08T14:35:38.818Z,47.41
2018-03-08T14:38:11.334Z,48.07
2018-03-08T14:40:43.834Z,48.09
2018-03-08T14:43:16.365Z,52.08
2018-03-08T14:45:48.968Z,50.63
2018-03-08T14:48:21.500Z,51.20
2018-03-08T14:50:54.122Z,50.15
2018-03-08T14:53:26.641Z,53.11
2018-03-08T14:55:59.151Z,51.55
2018-03-08T14:58:31.674Z,51.47
2018-03-08T15:01:04.207Z,50.31
2018-03-08T15:03:36.860Z,49.38
2018-03-08T15:06:09.394Z,53.22
2018-03-08T15:08:41.934Z,51.97
2018-03-08T15:11:14.434Z,51.56
2018-03-08T15:13:46.953Z,53.76
2018-03-08T15:16:19.474Z,52.19
2018-03-08T15:18:52.006Z,53.32
2018-03-08T15:21:24.522Z,49.85
2018-03-08T15:23:57.046Z,54.10
2018-03-08T15:26:29.565Z,49.10
2018-03-08T15:29:02.125Z,53.89
2018-03-08T15:31:34.642Z,51.04
2018-03-08T15:34:07.167Z,53.71
2018-03-08T15:36:39.670Z,53.64
2018-03-08T15:39:12.186Z,53.56
2018-03-08T15:41:44.705Z,50.68
2018-03-08T15:44:17.228Z,53.78
2018-03-08T15:46:49.733Z,53.26
2018-03-08T15:49:22.257Z,53.49
2018-03-08T15:51:54.850Z,53.40
2018-03-08T15:54:27.410Z,53.77
2018-03-08T15:56:59.909Z,54.87
2018-03-08T15:59:32.440Z,52.49
2018-03-08T16:02:04.966Z,50.04
2018-03-08T16:04:37.489Z,50.38
2018-03-08T16:10:41.081Z,50.54
2018-03-08T16:13:13.610Z,52.40
2018-03-08T16:15:46.105Z,52.73
2018-03-08T16:18:18.649Z,50.22
2018-03-08T16:20:51.133Z,53.81
2018-03-08T16:23:23.737Z,54.72
2018-03-08T16:25:56.212Z,55.90
2018-03-08T16:28:28.731Z,55.77
2018-03-08T16:31:01.203Z,56.56
2018-03-08T16:33:33.698Z,56.98
2018-03-08T16:36:06.226Z,55.03
2018-03-08T16:38:38.786Z,57.64
2018-03-08T16:41:11.295Z,59.50
2018-03-08T16:43:44.072Z,59.94
2018-03-08T16:46:16.566Z,60.35
2018-03-08T16:48:49.066Z,60.65
2018-03-08T16:51:21.953Z,61.61
2018-03-08T16:53:54.518Z,60.40
2018-03-08T16:56:26.991Z,62.09
2018-03-08T16:58:59.487Z,63.44
2018-03-08T17:01:31.960Z,62.77
2018-03-08T17:04:04.514Z,64.15
2018-03-08T17:06:37.091Z,64.22
2018-03-08T17:09:09.670Z,63.21
2018-03-08T17:11:42.146Z,65.38
2018-03-08T17:14:14.692Z,65.23
2018-03-08T17:16:47.168Z,65.57
2018-03-08T17:19:19.655Z,65.37
2018-03-08T17:21:52.162Z,65.84
2018-03-08T17:24:25.535Z,65.75
2018-03-08T17:26:58.015Z,65.72
2018-03-08T17:29:30.509Z,65.68
2018-03-08T17:32:02.974Z,65.78
2018-03-08T17:34:35.559Z,66.38
2018-03-08T17:37:08.107Z,66.53
2018-03-08T17:39:40.699Z,67.11
2018-03-08T17:42:13.259Z,66.14
2018-03-08T17:44:45.774Z,67.24
2018-03-08T17:47:18.242Z,66.42
2018-03-08T17:49:50.735Z,67.63
2018-03-08T17:52:23.209Z,67.91
2018-03-08T17:54:55.711Z,67.74
2018-03-08T17:57:28.187Z,67.51
2018-03-08T18:00:00.782Z,67.35
2018-03-08T18:02:33.254Z,67.04
2018-03-08T18:05:05.766Z,67.62
2018-03-08T18:07:38.287Z,67.62
2018-03-08T18:10:10.872Z,67.31
2018-03-08T18:12:43.431Z,67.30
2018-03-08T18:15:15.979Z,67.40
2018-03-08T18:17:48.460Z,67.54
2018-03-08T18:20:20.946Z,64.04
2018-03-08T18:22:53.447Z,67.72
2018-03-08T18:25:25.939Z,68.28
2018-03-08T18:27:58.413Z,67.07
2018-03-08T18:30:30.909Z,67.95
2018-03-08T18:33:03.376Z,67.50
2018-03-08T18:35:35.993Z,67.75
2018-03-08T18:38:08.541Z,68.14
2018-03-08T18:40:41.202Z,68.15
2018-03-08T18:43:13.815Z,68.00
2018-03-08T18:45:46.356Z,68.07
2018-03-08T18:48:18.832Z,68.86
2018-03-08T18:50:51.326Z,68.53
2018-03-08T18:53:23.802Z,68.83
2018-03-08T18:55:56.341Z,68.81
2018-03-08T18:58:28.786Z,68.70
2018-03-08T19:01:01.277Z,68.62
2018-03-08T19:03:33.746Z,68.64
2018-03-08T19:06:07.385Z,68.71
2018-03-08T19:08:39.916Z,67.22
2018-03-08T19:11:12.444Z,69.58
2018-03-08T19:13:44.954Z,69.66
2018-03-08T19:16:17.504Z,69.83
2018-03-08T19:18:49.988Z,68.35
2018-03-08T19:21:22.486Z,69.46
2018-03-08T19:23:54.979Z,69.18
2018-03-08T19:26:27.475Z,69.05
2018-03-08T19:29:00.464Z,68.81
2018-03-08T19:31:32.966Z,68.62
2018-03-08T19:34:05.542Z,68.67
2018-03-08T19:36:38.253Z,68.12
2018-03-08T19:39:10.852Z,68.94
2018-03-08T19:41:43.364Z,69.25
2018-03-08T19:44:15.855Z,69.34
2018-03-08T19:46:48.347Z,70.27
2018-03-08T19:49:21.652Z,68.95
2018-03-08T19:51:54.157Z,72.24
2018-03-08T19:54:26.647Z,70.97
2018-03-08T19:56:59.153Z,70.52
2018-03-08T19:59:31.700Z,70.24
2018-03-08T20:02:04.269Z,68.68
2018-03-08T20:04:36.837Z,69.67
2018-03-08T20:07:09.381Z,69.36
2018-03-08T20:09:42.782Z,69.85
2018-03-08T20:12:15.279Z,69.22
2018-03-08T20:14:48.052Z,70.33
2018-03-08T20:17:20.581Z,70.07
2018-03-08T20:19:53.060Z,69.77
2018-03-08T20:22:25.613Z,69.49
2018-03-08T20:24:58.095Z,69.47
2018-03-08T20:27:30.599Z,69.47
2018-03-08T20:30:03.083Z,69.55
2018-03-08T20:32:35.964Z,69.47
2018-03-08T20:35:08.486Z,69.43
2018-03-08T20:37:41.047Z,69.38
2018-03-08T20:40:13.531Z,69.29
2018-03-08T20:42:47.807Z,69.28
2018-03-08T20:45:20.283Z,69.21
2018-03-08T20:47:52.779Z,69.51
2018-03-08T20:50:25.286Z,69.52
2018-03-08T20:52:57.762Z,69.65
2018-03-08T20:55:30.275Z,69.56
2018-03-08T20:58:02.753Z,69.48
2018-03-08T21:00:35.534Z,69.17
2018-03-08T21:03:08.915Z,68.24
2018-03-08T21:05:41.442Z,69.86
2018-03-08T21:08:13.987Z,69.80
2018-03-08T21:10:46.504Z,69.74
2018-03-08T21:13:18.979Z,69.51
2018-03-08T21:15:51.475Z,69.65
2018-03-08T21:18:23.951Z,69.62
2018-03-08T21:20:56.482Z,69.05
2018-03-08T21:23:28.954Z,68.85
2018-03-08T21:26:01.472Z,69.00
2018-03-08T21:28:33.952Z,69.24
2018-03-08T21:31:06.527Z,68.82
2018-03-08T21:33:39.103Z,68.80
2018-03-08T21:36:11.614Z,69.30
2018-03-08T21:38:44.134Z,68.79
2018-03-08T21:41:16.647Z,69.44
2018-03-08T21:43:49.137Z,69.38
2018-03-08T21:46:21.651Z,69.33
2018-03-08T21:48:54.133Z,68.17
2018-03-08T21:51:26.635Z,69.76
2018-03-08T21:53:59.112Z,69.97
2018-03-08T21:56:31.606Z,69.62
2018-03-08T21:59:04.088Z,69.63
2018-03-08T22:01:36.628Z,69.80
2018-03-08T22:04:09.123Z,70.21
2018-03-08T22:06:41.676Z,69.92
2018-03-08T22:09:14.166Z,70.12
2018-03-08T22:11:46.687Z,70.29
2018-03-08T22:14:19.164Z,69.96
2018-03-08T22:16:51.671Z,69.99
2018-03-08T22:19:24.175Z,70.37
2018-03-08T22:21:56.708Z,69.89
2018-03-08T22:24:29.198Z,68.28
2018-03-08T22:27:01.700Z,69.46
2018-03-08T22:29:34.222Z,70.80
2018-03-08T22:32:07.272Z,70.73
2018-03-08T22:34:40.816Z,71.22
2018-03-08T22:37:13.385Z,70.86
2018-03-08T22:39:45.872Z,70.38
2018-03-08T22:42:18.407Z,70.70
2018-03-08T22:44:50.872Z,70.14
2018-03-08T22:47:23.404Z,70.91
2018-03-08T22:49:55.895Z,70.94
2018-03-08T22:52:28.410Z,70.00
2018-03-08T22:55:01.852Z,70.16
2018-03-08T22:57:34.360Z,70.92
2018-03-08T23:00:06.906Z,68.60
2018-03-08T23:02:39.494Z,70.79
2018-03-08T23:05:12.051Z,70.80
2018-03-08T23:07:44.598Z,70.79
2018-03-08T23:10:17.095Z,70.07
2018-03-08T23:12:50.518Z,71.04
2018-03-08T23:15:22.990Z,70.16
2018-03-08T23:17:56.459Z,70.28
2018-03-08T23:20:28.940Z,69.92
2018-03-08T23:23:01.454Z,69.53
2018-03-08T23:25:33.935Z,70.51
2018-03-08T23:28:06.467Z,70.48
2018-03-08T23:30:39.040Z,71.15
2018-03-08T23:33:11.551Z,71.34
2018-03-08T23:35:44.104Z,70.76
2018-03-08T23:38:16.642Z,69.94
2018-03-08T23:43:26.951Z,69.67
2018-03-08T23:45:59.434Z,70.01
2018-03-08T23:48:31.933Z,69.98
2018-03-08T23:51:04.423Z,67.71
2018-03-08T23:53:36.976Z,69.56
2018-03-08T23:56:09.465Z,70.73
2018-03-08T23:58:42.974Z,69.11
